Time;durP1;ratioP1;P1;durP2;ratioP2;P2;SDS_P1;SDS_P2;PMS_P1;PMS_P2;Temp;Humidity;BMP_temperature;BMP_pressure;BME280_temperature;BME280_humidity;BME280_pressure;Samples;Min_cycle;Max_cycle;Signal;HPM_P1;HPM_P2
2023/05/30 00:02:20;;;;;;;4.03;3.37;;;14.60;99.90;;;;;;5030499;28;20478;-68
2023/05/30 00:04:47;;;;;;;4.47;3.10;;;14.60;99.90;;;;;;5029543;28;21030;-68
2023/05/30 00:07:14;;;;;;;2.80;2.60;;;14.50;99.90;;;;;;5029957;28;21279;-68
2023/05/30 00:09:41;;;;;;;5.80;3.57;;;14.50;99.90;;;;;;5029479;28;20902;-68
2023/05/30 00:12:11;;;;;;;3.13;2.80;;;14.50;99.90;;;;;;5027396;28;20463;-68
2023/05/30 00:14:37;;;;;;;3.47;2.77;;;14.40;99.90;;;;;;5029735;28;20830;-68
2023/05/30 00:17:07;;;;;;;2.87;2.50;;;14.40;99.90;;;;;;5029365;28;20565;-68
2023/05/30 00:19:34;;;;;;;4.60;2.53;;;14.40;99.90;;;;;;5029190;28;20496;-68
2023/05/30 00:22:01;;;;;;;2.97;2.60;;;14.40;99.90;;;;;;5029327;28;20452;-68
2023/05/30 00:24:28;;;;;;;3.90;2.80;;;14.40;99.90;;;;;;5029566;28;20491;-68
2023/05/30 00:26:55;;;;;;;4.10;3.70;;;14.40;99.90;;;;;;5029562;28;20477;-69
2023/05/30 00:29:23;;;;;;;5.40;3.13;;;14.40;99.90;;;;;;5029264;28;20856;-68
2023/05/30 00:31:49;;;;;;;3.17;2.87;;;14.40;99.90;;;;;;5028991;28;20671;-68
2023/05/30 00:34:16;;;;;;;5.87;2.77;;;14.40;99.90;;;;;;5029902;28;20464;-68
2023/05/30 00:36:43;;;;;;;5.43;3.10;;;14.40;99.90;;;;;;5029919;28;20471;-68
2023/05/30 00:39:10;;;;;;;3.30;3.00;;;14.40;99.90;;;;;;5021499;28;20463;-68
2023/05/30 00:41:36;;;;;;;3.87;2.40;;;14.40;99.90;;;;;;5029867;28;20468;-68
2023/05/30 00:44:04;;;;;;;3.30;2.53;;;14.40;99.90;;;;;;5029484;28;20503;-68
2023/05/30 00:46:33;;;;;;;3.93;2.83;;;14.50;99.90;;;;;;5029845;28;20464;-68
2023/05/30 00:49:00;;;;;;;3.03;2.73;;;14.50;99.90;;;;;;5029087;28;20873;-68
2023/05/30 00:51:29;;;;;;;4.93;3.23;;;14.50;99.90;;;;;;5029520;28;20483;-68
2023/05/30 00:53:56;;;;;;;4.83;3.23;;;14.50;99.90;;;;;;5029388;28;20468;-68
2023/05/30 00:56:24;;;;;;;3.60;2.60;;;14.40;99.90;;;;;;5029796;28;20526;-68
2023/05/30 00:58:51;;;;;;;3.33;2.60;;;14.40;99.90;;;;;;5029016;28;20520;-68
2023/05/30 01:01:18;;;;;;;3.20;2.90;;;14.40;99.90;;;;;;5029334;28;20460;-68
2023/05/30 01:03:48;;;;;;;2.93;2.73;;;14.40;99.90;;;;;;5029538;28;20484;-68
2023/05/30 01:06:15;;;;;;;4.30;3.23;;;14.40;99.90;;;;;;5029401;28;20489;-68
2023/05/30 01:08:41;;;;;;;3.73;2.73;;;14.40;99.90;;;;;;5029586;28;20566;-68
2023/05/30 01:11:16;;;;;;;3.43;2.63;;;14.40;99.90;;;;;;5028869;28;20472;-68
2023/05/30 01:13:50;;;;;;;4.03;3.20;;;14.40;99.90;;;;;;5029777;28;20483;-68
2023/05/30 01:16:24;;;;;;;3.13;2.83;;;14.30;99.90;;;;;;5029627;28;20464;-68
2023/05/30 01:18:58;;;;;;;3.90;2.90;;;14.30;99.90;;;;;;5028870;28;20611;-68
2023/05/30 01:21:27;;;;;;;3.90;2.90;;;14.30;99.90;;;;;;5029393;28;20889;-68
2023/05/30 01:24:07;;;;;;;4.50;2.80;;;14.30;99.90;;;;;;5029017;28;20487;-68
2023/05/30 01:26:48;;;;;;;3.10;2.70;;;14.20;99.90;;;;;;5029496;28;20880;-68
2023/05/30 01:29:20;;;;;;;6.50;3.10;;;14.20;99.90;;;;;;5028806;28;20964;-68
2023/05/30 01:31:48;;;;;;;3.70;2.80;;;14.20;99.90;;;;;;5037278;28;20466;-68
2023/05/30 01:34:15;;;;;;;4.07;3.00;;;14.20;99.90;;;;;;5049056;28;20965;-68
2023/05/30 01:36:42;;;;;;;3.40;2.90;;;14.20;99.90;;;;;;5049086;28;20459;-68
2023/05/30 01:39:09;;;;;;;4.30;2.97;;;14.20;99.90;;;;;;5048501;28;20831;-68
2023/05/30 01:41:42;;;;;;;3.70;2.63;;;14.20;99.90;;;;;;5049173;28;20565;-68
2023/05/30 01:44:17;;;;;;;3.10;2.80;;;14.20;99.90;;;;;;5050797;28;20475;-68
2023/05/30 01:46:51;;;;;;;5.07;3.23;;;14.20;99.90;;;;;;5052659;28;20468;-68
2023/05/30 01:49:23;;;;;;;3.37;2.90;;;14.20;99.90;;;;;;5052242;28;20463;-68
2023/05/30 01:51:55;;;;;;;3.77;2.93;;;14.10;99.90;;;;;;5052345;28;21017;-68
2023/05/30 01:54:24;;;;;;;3.40;2.90;;;14.10;99.90;;;;;;5052543;28;20467;-68
2023/05/30 01:56:54;;;;;;;4.20;3.80;;;14.10;99.90;;;;;;5052252;28;20485;-68
2023/05/30 01:59:23;;;;;;;3.57;2.90;;;14.00;99.90;;;;;;5051981;28;20467;-68
2023/05/30 02:01:54;;;;;;;6.83;3.40;;;14.00;99.90;;;;;;5051913;28;20470;-68
2023/05/30 02:04:21;;;;;;;4.27;3.20;;;14.00;99.90;;;;;;5052264;28;20475;-68
2023/05/30 02:06:47;;;;;;;4.30;2.87;;;14.00;99.90;;;;;;5052224;28;20455;-68
2023/05/30 02:09:14;;;;;;;2.60;2.40;;;13.90;99.90;;;;;;5023781;28;20468;-69
2023/05/30 02:11:41;;;;;;;3.37;2.87;;;13.90;99.90;;;;;;5032405;28;21150;-68
2023/05/30 02:14:08;;;;;;;2.90;2.70;;;13.90;99.90;;;;;;5031761;28;20467;-68
2023/05/30 02:16:35;;;;;;;3.60;2.67;;;13.80;99.90;;;;;;5032092;28;20464;-69
2023/05/30 02:19:03;;;;;;;3.40;2.80;;;13.80;99.90;;;;;;5031504;28;20483;-68
2023/05/30 02:21:30;;;;;;;4.67;3.07;;;13.80;99.90;;;;;;5031707;28;20982;-68
2023/05/30 02:23:57;;;;;;;5.47;3.00;;;13.70;99.90;;;;;;5031645;28;20468;-68
2023/05/30 02:26:23;;;;;;;5.50;3.27;;;13.80;99.90;;;;;;5031872;28;20464;-68
2023/05/30 02:28:50;;;;;;;4.60;3.00;;;13.70;99.90;;;;;;5031572;28;20507;-68
2023/05/30 02:31:17;;;;;;;3.93;3.20;;;13.70;99.90;;;;;;5051181;28;20451;-69
2023/05/30 02:33:44;;;;;;;3.40;2.50;;;13.70;99.90;;;;;;5051578;28;20460;-68
2023/05/30 02:36:12;;;;;;;3.40;2.87;;;13.60;99.90;;;;;;5051328;28;20463;-68
2023/05/30 02:38:38;;;;;;;4.67;3.00;;;13.60;99.90;;;;;;5051417;28;21172;-68
2023/05/30 02:41:05;;;;;;;3.00;2.70;;;13.60;99.90;;;;;;5050859;28;20468;-68
2023/05/30 02:43:32;;;;;;;2.87;2.67;;;13.50;99.90;;;;;;5051653;28;20488;-68
2023/05/30 02:46:00;;;;;;;3.53;3.00;;;13.50;99.90;;;;;;5051036;28;20998;-69
2023/05/30 02:48:27;;;;;;;4.00;2.93;;;13.50;99.90;;;;;;5051542;28;20483;-69
2023/05/30 02:50:54;;;;;;;3.70;3.30;;;13.50;99.90;;;;;;5050864;28;20467;-69
2023/05/30 02:53:22;;;;;;;6.87;3.00;;;13.50;99.90;;;;;;5051344;28;20470;-69
2023/05/30 02:55:50;;;;;;;5.90;3.10;;;13.50;99.90;;;;;;5050681;28;21004;-68
2023/05/30 02:58:17;;;;;;;2.83;2.50;;;13.50;99.90;;;;;;5051079;28;20483;-68
2023/05/30 03:00:43;;;;;;;3.67;2.80;;;13.40;99.90;;;;;;5050976;28;20460;-68
2023/05/30 03:03:10;;;;;;;3.73;3.30;;;13.40;99.90;;;;;;5050775;28;20470;-68
2023/05/30 03:05:38;;;;;;;4.53;2.80;;;13.40;99.90;;;;;;5051057;28;20483;-68
2023/05/30 03:08:05;;;;;;;3.07;2.83;;;13.40;99.90;;;;;;5050763;28;20483;-68
2023/05/30 03:10:33;;;;;;;3.27;2.30;;;13.40;99.90;;;;;;5036859;28;20514;-68
2023/05/30 03:13:00;;;;;;;4.23;2.93;;;13.40;99.90;;;;;;5031029;28;20465;-68
2023/05/30 03:15:27;;;;;;;4.63;3.47;;;13.30;99.90;;;;;;5031034;28;20457;-68
2023/05/30 03:17:54;;;;;;;3.20;2.90;;;13.30;99.90;;;;;;5030722;28;20479;-68
2023/05/30 03:20:23;;;;;;;3.50;2.63;;;13.30;99.90;;;;;;5030462;28;21061;-68
2023/05/30 03:22:49;;;;;;;3.43;2.90;;;13.30;99.90;;;;;;5031056;28;20456;-68
2023/05/30 03:25:16;;;;;;;2.77;2.53;;;13.30;99.90;;;;;;5030033;28;21316;-68
2023/05/30 03:27:50;;;;;;;3.93;2.57;;;13.30;99.90;;;;;;5030735;28;20503;-68
2023/05/30 03:30:18;;;;;;;2.87;2.30;;;13.20;99.90;;;;;;5028642;28;20982;-68
2023/05/30 03:32:48;;;;;;;3.97;2.93;;;13.20;99.90;;;;;;5027305;28;20841;-68
2023/05/30 03:35:16;;;;;;;3.40;2.90;;;13.20;99.90;;;;;;5026580;28;20549;-68
2023/05/30 03:37:42;;;;;;;5.20;2.90;;;13.20;99.90;;;;;;5027384;28;20476;-68
2023/05/30 03:40:10;;;;;;;3.73;2.67;;;13.20;99.90;;;;;;5026139;28;20526;-68
2023/05/30 03:42:37;;;;;;;3.30;2.87;;;13.20;99.90;;;;;;5028044;28;20468;-68
2023/05/30 03:45:06;;;;;;;6.13;3.10;;;13.20;99.90;;;;;;5028224;28;20476;-68
2023/05/30 03:47:33;;;;;;;4.43;3.10;;;13.20;99.90;;;;;;5030347;28;21015;-68
2023/05/30 03:50:00;;;;;;;4.80;3.20;;;13.10;99.90;;;;;;5029815;28;20456;-68
2023/05/30 03:52:26;;;;;;;2.77;2.50;;;13.20;99.90;;;;;;5029419;28;20852;-68
2023/05/30 03:54:53;;;;;;;5.10;3.30;;;13.20;99.90;;;;;;5029725;28;20814;-69
2023/05/30 03:57:20;;;;;;;4.57;2.97;;;13.20;99.90;;;;;;5028611;28;20511;-68
2023/05/30 03:59:47;;;;;;;4.17;2.90;;;13.20;99.90;;;;;;5029170;28;20464;-68
2023/05/30 04:02:15;;;;;;;3.33;3.03;;;13.20;99.90;;;;;;5030450;28;20471;-68
2023/05/30 04:04:42;;;;;;;4.97;2.73;;;13.20;99.90;;;;;;5049894;28;20486;-68
2023/05/30 04:07:09;;;;;;;3.50;3.20;;;13.20;99.90;;;;;;5049610;28;20479;-68
2023/05/30 04:09:36;;;;;;;5.10;2.80;;;13.20;99.90;;;;;;5049416;28;20464;-68
2023/05/30 04:12:02;;;;;;;5.00;2.87;;;13.30;99.90;;;;;;5048852;28;20459;-68
2023/05/30 04:14:29;;;;;;;4.33;2.73;;;13.30;99.90;;;;;;5030161;28;20467;-69
2023/05/30 04:16:56;;;;;;;4.00;3.10;;;13.30;99.90;;;;;;5029763;28;20507;-68
2023/05/30 04:19:24;;;;;;;7.83;3.20;;;13.30;99.90;;;;;;5029477;28;20472;-68
2023/05/30 04:21:51;;;;;;;3.50;2.97;;;13.30;99.90;;;;;;5031452;28;20884;-68
2023/05/30 04:24:17;;;;;;;4.73;3.43;;;13.30;99.90;;;;;;5048921;28;20559;-68
2023/05/30 04:26:48;;;;;;;9.57;3.87;;;13.40;99.90;;;;;;5033856;28;20859;-68
2023/05/30 04:29:15;;;;;;;3.63;2.83;;;13.40;99.90;;;;;;5027808;28;20912;-66
2023/05/30 04:31:43;;;;;;;3.67;3.03;;;13.40;99.90;;;;;;5026086;28;20471;-66
2023/05/30 04:34:10;;;;;;;3.03;2.73;;;13.40;99.90;;;;;;5026355;28;20475;-67
2023/05/30 04:36:40;;;;;;;3.90;3.30;;;13.40;99.90;;;;;;5026778;28;20463;-67
2023/05/30 04:39:07;;;;;;;4.17;3.23;;;13.50;99.90;;;;;;5026110;28;20460;-66
2023/05/30 04:41:34;;;;;;;5.47;3.10;;;13.50;99.90;;;;;;5026504;28;20575;-66
2023/05/30 04:44:03;;;;;;;4.87;3.50;;;13.50;99.90;;;;;;5027083;28;20956;-66
2023/05/30 04:46:30;;;;;;;5.17;3.13;;;13.60;99.90;;;;;;5029355;28;20480;-67
2023/05/30 04:49:00;;;;;;;3.90;3.40;;;13.60;99.90;;;;;;5029698;28;20475;-67
2023/05/30 04:51:27;;;;;;;4.37;3.70;;;13.60;99.90;;;;;;5021967;28;20460;-67
2023/05/30 04:53:56;;;;;;;3.30;3.00;;;13.60;99.90;;;;;;5045787;28;20466;-67
2023/05/30 04:56:22;;;;;;;4.53;3.57;;;13.70;99.90;;;;;;5049298;28;20518;-66
2023/05/30 04:58:51;;;;;;;3.30;2.80;;;13.70;99.90;;;;;;5049162;28;20570;-67
2023/05/30 05:01:18;;;;;;;3.57;2.90;;;13.70;99.90;;;;;;5044851;28;20948;-67
2023/05/30 05:03:45;;;;;;;5.73;3.33;;;13.70;99.90;;;;;;5029851;28;20893;-67
2023/05/30 05:06:13;;;;;;;4.10;3.13;;;13.80;99.90;;;;;;5029210;28;20484;-67
2023/05/30 05:08:40;;;;;;;4.43;2.90;;;13.80;99.90;;;;;;5028520;28;20480;-67
2023/05/30 05:11:08;;;;;;;5.83;2.80;;;13.90;99.90;;;;;;5028815;28;20563;-67
2023/05/30 05:13:35;;;;;;;4.30;3.10;;;14.00;99.90;;;;;;5029556;28;20467;-66
2023/05/30 05:16:04;;;;;;;4.00;3.60;;;14.00;99.90;;;;;;5029348;28;20836;-67
2023/05/30 05:18:31;;;;;;;3.30;2.90;;;14.00;99.90;;;;;;5030699;28;21037;-67
2023/05/30 05:20:57;;;;;;;5.23;3.20;;;14.10;99.90;;;;;;5033286;28;20521;-67
2023/05/30 05:23:24;;;;;;;4.27;3.30;;;14.10;99.90;;;;;;5032509;28;20464;-66
2023/05/30 05:25:51;;;;;;;5.60;3.20;;;14.20;99.90;;;;;;5032762;28;21034;-67
2023/05/30 05:28:20;;;;;;;5.03;2.93;;;14.30;99.90;;;;;;5032357;28;20486;-66
2023/05/30 05:30:48;;;;;;;3.40;3.07;;;14.40;99.90;;;;;;5032538;28;20990;-67
2023/05/30 05:33:15;;;;;;;5.80;3.37;;;14.30;99.90;;;;;;5034653;28;20471;-66
2023/05/30 05:35:42;;;;;;;3.63;3.17;;;14.30;99.90;;;;;;5030316;28;20518;-67
2023/05/30 05:38:09;;;;;;;4.90;3.30;;;14.40;99.90;;;;;;5032149;28;20927;-67
2023/05/30 05:40:36;;;;;;;3.43;2.83;;;14.40;99.90;;;;;;5032082;28;20475;-67
2023/05/30 05:43:03;;;;;;;4.07;3.10;;;14.40;99.90;;;;;;5032329;28;20475;-67
2023/05/30 05:45:31;;;;;;;4.07;3.30;;;14.50;99.90;;;;;;5032166;28;20995;-66
2023/05/30 05:47:57;;;;;;;4.73;3.00;;;14.50;99.90;;;;;;5032339;28;20483;-66
2023/05/30 05:50:24;;;;;;;3.20;2.90;;;14.60;99.90;;;;;;5031674;28;20471;-67
2023/05/30 05:52:51;;;;;;;5.30;3.43;;;14.60;99.90;;;;;;5032016;28;20487;-67
2023/05/30 05:55:17;;;;;;;3.80;3.17;;;14.70;99.90;;;;;;5032165;28;20468;-67
2023/05/30 05:57:44;;;;;;;5.33;3.30;;;14.80;99.90;;;;;;5032579;28;20491;-67
2023/05/30 06:00:12;;;;;;;5.27;3.30;;;14.80;99.90;;;;;;5031458;28;20610;-67
2023/05/30 06:02:40;;;;;;;4.47;3.40;;;14.90;99.90;;;;;;5034174;28;20873;-67
2023/05/30 06:05:08;;;;;;;5.30;3.53;;;15.00;99.90;;;;;;5031653;28;20510;-66
2023/05/30 06:07:35;;;;;;;4.03;3.00;;;15.00;99.90;;;;;;5032017;28;20492;-66
2023/05/30 06:10:02;;;;;;;3.70;3.27;;;15.10;99.90;;;;;;5036120;28;20464;-67
2023/05/30 06:12:28;;;;;;;3.53;2.80;;;15.10;99.90;;;;;;5030734;28;20515;-67
2023/05/30 06:14:55;;;;;;;5.20;3.47;;;15.20;99.90;;;;;;5031955;28;20456;-66
2023/05/30 06:17:22;;;;;;;3.30;3.00;;;15.30;99.90;;;;;;5031607;28;20542;-67
2023/05/30 06:19:51;;;;;;;3.57;2.97;;;15.40;99.90;;;;;;5031596;28;20838;-67
2023/05/30 06:22:18;;;;;;;3.70;2.90;;;15.50;99.90;;;;;;5031110;28;20498;-67
2023/05/30 06:24:46;;;;;;;7.93;3.70;;;15.60;99.90;;;;;;5032173;28;20465;-67
2023/05/30 06:27:13;;;;;;;4.27;3.07;;;15.70;99.90;;;;;;5033654;28;20538;-67
2023/05/30 06:29:40;;;;;;;3.63;3.00;;;15.70;99.90;;;;;;5030428;28;20467;-67
2023/05/30 06:32:08;;;;;;;4.40;2.83;;;15.80;99.90;;;;;;5031799;28;20471;-66
2023/05/30 06:34:34;;;;;;;4.37;3.00;;;15.90;99.90;;;;;;5032075;28;20472;-66
2023/05/30 06:37:03;;;;;;;3.80;3.17;;;15.90;99.90;;;;;;5031223;28;20477;-67
2023/05/30 06:39:29;;;;;;;6.07;3.33;;;16.00;99.90;;;;;;5031452;28;20461;-67
2023/05/30 06:41:56;;;;;;;5.90;3.53;;;16.10;99.90;;;;;;5031676;28;20522;-67
2023/05/30 06:44:23;;;;;;;5.40;3.83;;;16.20;99.90;;;;;;5031578;28;20456;-66
2023/05/30 06:46:50;;;;;;;3.57;2.60;;;16.30;99.90;;;;;;5031805;28;20484;-67
2023/05/30 06:49:16;;;;;;;3.77;2.80;;;16.40;99.90;;;;;;5031168;28;20472;-67
2023/05/30 06:51:43;;;;;;;3.20;2.73;;;16.50;99.90;;;;;;5031776;28;20471;-67
2023/05/30 06:54:11;;;;;;;5.40;3.27;;;16.60;99.90;;;;;;5039912;28;20470;-67
2023/05/30 06:56:37;;;;;;;3.80;3.40;;;16.60;99.90;;;;;;5031271;28;20465;-67
2023/05/30 06:59:04;;;;;;;5.43;3.30;;;16.70;99.90;;;;;;5031530;28;20460;-67
2023/05/30 07:01:31;;;;;;;5.90;3.03;;;16.80;99.90;;;;;;5023399;28;20467;-67
2023/05/30 07:03:58;;;;;;;3.73;3.00;;;16.80;99.90;;;;;;5031883;28;20460;-67
2023/05/30 07:06:25;;;;;;;5.30;3.57;;;16.90;99.90;;;;;;5031302;28;20903;-67
2023/05/30 07:08:52;;;;;;;5.50;3.13;;;17.00;99.90;;;;;;5031137;28;20511;-67
2023/05/30 07:11:20;;;;;;;4.67;3.30;;;17.10;99.90;;;;;;5030771;28;20518;-67
2023/05/30 07:13:47;;;;;;;5.90;3.60;;;17.10;99.90;;;;;;5031345;28;20465;-67
2023/05/30 07:16:13;;;;;;;6.13;4.20;;;17.20;99.90;;;;;;5031233;28;20456;-67
2023/05/30 07:18:40;;;;;;;4.70;3.43;;;17.20;99.90;;;;;;5031119;28;20484;-67
2023/05/30 07:21:07;;;;;;;3.93;3.37;;;17.30;99.90;;;;;;5031021;28;20460;-66
2023/05/30 07:23:34;;;;;;;3.97;3.10;;;17.30;99.90;;;;;;5031481;28;20496;-67
2023/05/30 07:26:01;;;;;;;4.10;3.50;;;17.40;99.90;;;;;;5031310;28;20507;-67
2023/05/30 07:28:29;;;;;;;4.10;3.00;;;17.40;99.90;;;;;;5030473;28;20480;-67
2023/05/30 07:30:56;;;;;;;3.90;2.93;;;17.50;99.90;;;;;;5030947;28;20473;-67
2023/05/30 07:33:23;;;;;;;4.80;3.37;;;17.50;99.90;;;;;;5030769;28;20460;-67
2023/05/30 07:35:49;;;;;;;5.00;3.60;;;17.50;99.90;;;;;;5031530;28;20479;-67
2023/05/30 07:38:16;;;;;;;4.33;3.20;;;17.60;99.90;;;;;;5030497;28;20488;-67
2023/05/30 07:40:43;;;;;;;4.63;3.13;;;17.70;99.90;;;;;;5030230;28;20472;-67
2023/05/30 07:43:09;;;;;;;4.80;2.83;;;17.80;99.90;;;;;;5030863;28;20467;-67
2023/05/30 07:45:37;;;;;;;5.53;3.30;;;17.80;99.90;;;;;;5030656;28;20465;-67
2023/05/30 07:48:05;;;;;;;3.90;2.50;;;18.00;99.90;;;;;;5030650;28;20503;-67
2023/05/30 07:50:32;;;;;;;3.50;2.77;;;18.00;99.90;;;;;;5029725;28;20456;-67
2023/05/30 07:52:58;;;;;;;3.37;3.03;;;18.10;99.90;;;;;;5030627;28;20456;-67
2023/05/30 07:55:26;;;;;;;3.50;3.03;;;18.10;99.90;;;;;;5030032;28;20460;-66
2023/05/30 07:57:53;;;;;;;3.43;3.10;;;18.10;99.90;;;;;;5030532;28;20502;-67
2023/05/30 08:00:20;;;;;;;4.30;2.93;;;18.20;99.90;;;;;;5029701;28;20456;-67
2023/05/30 08:02:48;;;;;;;4.73;2.63;;;18.20;99.90;;;;;;5030874;28;20456;-67
2023/05/30 08:05:15;;;;;;;5.30;3.47;;;18.20;99.90;;;;;;5047575;28;20476;-67
2023/05/30 08:07:41;;;;;;;4.43;3.10;;;18.30;99.90;;;;;;5050241;28;20479;-66
2023/05/30 08:10:09;;;;;;;4.93;3.30;;;18.30;99.90;;;;;;5049692;28;20467;-67
2023/05/30 08:12:36;;;;;;;6.20;2.87;;;18.40;99.90;;;;;;5050173;28;20471;-67
2023/05/30 08:15:03;;;;;;;4.53;2.80;;;18.40;99.90;;;;;;5050206;28;20466;-67
2023/05/30 08:17:29;;;;;;;4.40;3.30;;;18.50;99.90;;;;;;5049821;28;20502;-67
2023/05/30 08:19:57;;;;;;;7.57;3.37;;;18.70;99.90;;;;;;5049980;28;20468;-67
2023/05/30 08:22:24;;;;;;;4.00;3.60;;;18.80;99.90;;;;;;5050006;28;20861;-67
2023/05/30 08:24:53;;;;;;;4.50;2.97;;;18.90;99.90;;;;;;5050201;28;20464;-67
2023/05/30 08:27:21;;;;;;;5.40;4.33;;;19.10;99.90;;;;;;5032253;28;20490;-67
2023/05/30 08:29:49;;;;;;;4.20;3.10;;;19.20;99.90;;;;;;5036099;28;20550;-68
2023/05/30 08:32:16;;;;;;;4.87;3.53;;;19.30;99.90;;;;;;5046246;28;20842;-68
2023/05/30 08:34:43;;;;;;;4.00;2.97;;;19.30;99.90;;;;;;5029657;28;20979;-67
2023/05/30 08:37:11;;;;;;;3.50;2.63;;;19.30;99.90;;;;;;5037685;28;20471;-67
2023/05/30 08:39:37;;;;;;;3.67;2.93;;;19.30;99.90;;;;;;5048531;28;20545;-67
2023/05/30 08:42:06;;;;;;;5.03;3.23;;;19.50;99.90;;;;;;5049965;28;20471;-68
2023/05/30 08:44:33;;;;;;;4.07;3.40;;;19.50;99.90;;;;;;5049064;28;20522;-68
2023/05/30 08:47:01;;;;;;;4.77;3.50;;;19.50;99.90;;;;;;5049645;28;20483;-68
2023/05/30 08:49:32;;;;;;;5.00;3.60;;;19.60;99.90;;;;;;5048813;28;20467;-67
2023/05/30 08:52:02;;;;;;;4.60;2.90;;;19.70;99.90;;;;;;5049007;28;20466;-68
2023/05/30 08:54:35;;;;;;;5.70;3.10;;;19.80;99.90;;;;;;5047924;28;21711;-67
2023/05/30 08:57:06;;;;;;;5.83;3.33;;;19.80;99.90;;;;;;5033696;28;20530;-67
2023/05/30 08:59:33;;;;;;;4.17;3.43;;;19.70;99.90;;;;;;5032406;28;20476;-68
2023/05/30 09:02:01;;;;;;;4.37;3.30;;;19.90;99.90;;;;;;5033871;28;20465;-67
2023/05/30 09:04:28;;;;;;;4.47;3.10;;;20.00;99.90;;;;;;5032913;28;20458;-67
2023/05/30 09:06:56;;;;;;;5.87;2.93;;;20.10;99.90;;;;;;5033573;28;20487;-68
2023/05/30 09:09:23;;;;;;;4.87;3.50;;;20.20;99.90;;;;;;5033262;28;20952;-67
2023/05/30 09:11:54;;;;;;;5.00;3.30;;;20.30;99.90;;;;;;5033883;28;20470;-68
2023/05/30 09:14:21;;;;;;;3.20;2.90;;;20.50;99.90;;;;;;5033115;28;20462;-66
2023/05/30 09:16:48;;;;;;;4.40;2.60;;;20.70;99.90;;;;;;5033133;28;20457;-68
2023/05/30 09:19:15;;;;;;;3.63;2.87;;;20.80;99.90;;;;;;5032886;28;20468;-66
2023/05/30 09:21:42;;;;;;;3.47;3.13;;;21.00;99.50;;;;;;5033103;28;20949;-68
2023/05/30 09:24:09;;;;;;;3.43;2.83;;;21.00;99.90;;;;;;5033374;28;20837;-67
2023/05/30 09:26:35;;;;;;;3.37;2.93;;;21.00;99.70;;;;;;5032997;28;20482;-67
2023/05/30 09:29:10;;;;;;;3.57;3.10;;;21.10;99.30;;;;;;5032767;28;20457;-67
2023/05/30 09:31:37;;;;;;;3.97;2.80;;;21.20;99.90;;;;;;5032701;28;20469;-68
2023/05/30 09:34:06;;;;;;;3.90;3.00;;;21.30;98.70;;;;;;5040256;28;20550;-67
2023/05/30 09:36:32;;;;;;;4.43;3.10;;;21.20;98.50;;;;;;5052580;28;20588;-67
2023/05/30 09:39:01;;;;;;;3.77;2.77;;;21.30;99.90;;;;;;5052719;28;20983;-68
2023/05/30 09:41:29;;;;;;;3.07;2.83;;;21.30;98.70;;;;;;5052102;28;20478;-66
2023/05/30 09:43:57;;;;;;;3.60;2.63;;;21.40;98.30;;;;;;5052682;28;20460;-67
2023/05/30 09:46:26;;;;;;;3.47;2.40;;;21.40;99.40;;;;;;5052335;28;20489;-67
2023/05/30 09:48:52;;;;;;;5.50;3.30;;;21.60;99.20;;;;;;5052504;28;20515;-68
2023/05/30 09:51:21;;;;;;;3.23;2.53;;;21.70;99.90;;;;;;5052001;28;20467;-67
2023/05/30 09:54:00;;;;;;;3.80;3.13;;;21.90;99.50;;;;;;5052745;28;20901;-67
2023/05/30 09:56:33;;;;;;;3.27;2.80;;;22.00;99.10;;;;;;5052328;28;20893;-67
2023/05/30 09:59:02;;;;;;;4.50;3.30;;;22.10;98.80;;;;;;5052248;28;20960;-67
2023/05/30 10:01:36;;;;;;;4.07;3.13;;;22.10;98.90;;;;;;5040524;28;20556;-67
2023/05/30 10:04:10;;;;;;;3.80;2.77;;;22.20;98.50;;;;;;5032290;28;20517;-67
2023/05/30 10:06:40;;;;;;;3.40;3.10;;;22.30;99.30;;;;;;5031866;28;20478;-68
2023/05/30 10:09:07;;;;;;;3.57;3.00;;;22.30;99.30;;;;;;5030061;28;20460;-67
2023/05/30 10:11:35;;;;;;;4.00;3.10;;;22.50;99.30;;;;;;5031800;28;20468;-67
2023/05/30 10:14:02;;;;;;;3.27;2.73;;;22.70;99.30;;;;;;5032637;28;20545;-67
2023/05/30 10:16:29;;;;;;;3.73;3.10;;;22.80;98.60;;;;;;5031936;28;20544;-67
2023/05/30 10:19:02;;;;;;;4.07;3.13;;;22.70;97.10;;;;;;5031516;28;21032;-67
2023/05/30 10:21:32;;;;;;;4.63;3.33;;;22.80;99.40;;;;;;5031875;28;20475;-67
2023/05/30 10:24:02;;;;;;;4.63;2.90;;;23.00;98.00;;;;;;5046105;28;20545;-67
2023/05/30 10:26:33;;;;;;;3.30;3.00;;;23.00;96.70;;;;;;5051179;28;20468;-67
2023/05/30 10:29:04;;;;;;;4.13;3.50;;;23.00;97.40;;;;;;5051831;28;20839;-67
2023/05/30 10:31:32;;;;;;;3.97;2.57;;;23.00;98.30;;;;;;5041035;28;20467;-67
2023/05/30 10:34:02;;;;;;;2.83;2.63;;;23.10;97.80;;;;;;5031385;28;20489;-67
2023/05/30 10:36:30;;;;;;;3.73;2.70;;;23.20;96.80;;;;;;5031531;28;20464;-67
2023/05/30 10:39:09;;;;;;;3.63;3.23;;;23.20;96.30;;;;;;5031650;28;20477;-67
2023/05/30 10:41:41;;;;;;;4.10;3.30;;;23.40;98.00;;;;;;5030758;28;20540;-68
2023/05/30 10:44:17;;;;;;;4.40;3.07;;;23.40;96.40;;;;;;5030894;28;20469;-67
2023/05/30 10:46:51;;;;;;;3.97;2.67;;;23.30;95.20;;;;;;5029427;28;20486;-67
2023/05/30 10:49:23;;;;;;;4.23;3.10;;;23.20;95.50;;;;;;5029376;28;20472;-66
2023/05/30 10:52:00;;;;;;;7.97;3.13;;;23.20;97.80;;;;;;5023800;28;21013;-68
2023/05/30 10:54:29;;;;;;;4.97;2.73;;;23.40;97.20;;;;;;5030626;28;20982;-67
2023/05/30 10:56:55;;;;;;;5.87;3.60;;;23.60;97.70;;;;;;5030200;28;20493;-67
2023/05/30 10:59:23;;;;;;;3.00;2.50;;;23.90;97.20;;;;;;5030010;28;20471;-67
2023/05/30 11:02:08;;;;;;;3.77;2.60;;;24.00;97.90;;;;;;5030923;28;20478;-67
2023/05/30 11:04:38;;;;;;;6.97;3.40;;;24.30;97.80;;;;;;5030221;28;20886;-67
2023/05/30 11:07:06;;;;;;;4.37;2.37;;;24.40;97.30;;;;;;5030878;28;20509;-67
2023/05/30 11:09:33;;;;;;;3.03;2.73;;;24.60;97.60;;;;;;5029942;28;20475;-67
2023/05/30 11:12:01;;;;;;;5.57;3.23;;;24.60;96.90;;;;;;5030479;28;20472;-67
2023/05/30 11:14:29;;;;;;;3.87;2.83;;;24.70;95.70;;;;;;5030097;28;20490;-67
2023/05/30 11:16:57;;;;;;;6.17;2.93;;;24.70;96.00;;;;;;5030515;28;20843;-68
2023/05/30 11:19:26;;;;;;;6.37;3.17;;;24.70;94.90;;;;;;5030097;28;20481;-68
2023/05/30 11:21:58;;;;;;;3.90;2.80;;;24.80;95.90;;;;;;5030380;28;20460;-67
2023/05/30 11:24:26;;;;;;;4.70;3.10;;;24.60;94.40;;;;;;5030115;28;20993;-67
2023/05/30 11:26:57;;;;;;;2.70;2.50;;;24.50;95.30;;;;;;5028974;28;20492;-67
2023/05/30 11:29:36;;;;;;;5.63;3.13;;;24.70;95.90;;;;;;5029476;28;20499;-66
2023/05/30 11:32:05;;;;;;;3.53;2.70;;;25.20;96.00;;;;;;5030302;28;20464;-67
2023/05/30 11:34:32;;;;;;;3.57;2.93;;;25.50;94.80;;;;;;5029074;28;20461;-67
2023/05/30 11:37:00;;;;;;;3.97;2.87;;;25.50;92.80;;;;;;5029450;28;20507;-67
2023/05/30 11:39:27;;;;;;;3.70;2.60;;;25.60;93.20;;;;;;5029349;28;20494;-68
2023/05/30 11:41:55;;;;;;;3.83;2.43;;;25.90;94.40;;;;;;5029554;28;20964;-68
2023/05/30 11:44:23;;;;;;;3.20;2.50;;;26.20;93.10;;;;;;5029899;28;20548;-68
2023/05/30 11:47:03;;;;;;;4.67;2.97;;;26.20;91.70;;;;;;5029774;28;20541;-68
2023/05/30 11:49:30;;;;;;;3.10;2.80;;;26.00;92.30;;;;;;5030384;28;20460;-68
2023/05/30 11:51:57;;;;;;;4.80;2.30;;;26.10;94.20;;;;;;5045790;28;20538;-68
2023/05/30 11:54:25;;;;;;;3.80;3.00;;;26.30;93.30;;;;;;5028908;28;20461;-68
2023/05/30 11:56:52;;;;;;;3.27;2.97;;;26.30;93.80;;;;;;5028727;28;21023;-69
2023/05/30 11:59:20;;;;;;;3.37;2.73;;;26.20;93.80;;;;;;5028288;28;20472;-69
2023/05/30 12:01:54;;;;;;;2.87;2.50;;;25.80;92.20;;;;;;5028979;28;20577;-68
2023/05/30 12:04:26;;;;;;;3.07;2.80;;;25.40;92.80;;;;;;5028214;28;20503;-68
2023/05/30 12:06:53;;;;;;;3.17;2.70;;;25.20;95.20;;;;;;5020535;28;20575;-68
2023/05/30 12:09:20;;;;;;;3.53;2.90;;;25.40;93.70;;;;;;5028305;28;20472;-68
2023/05/30 12:11:54;;;;;;;4.10;2.70;;;25.60;92.10;;;;;;5027436;28;20968;-68
2023/05/30 12:14:21;;;;;;;3.13;2.73;;;25.80;92.10;;;;;;5029232;28;21167;-68
2023/05/30 12:16:55;;;;;;;3.03;2.40;;;25.90;92.80;;;;;;5028866;28;20469;-68
2023/05/30 12:19:21;;;;;;;3.73;2.70;;;26.00;93.50;;;;;;5028923;28;20502;-69
2023/05/30 12:21:51;;;;;;;2.63;2.43;;;26.10;92.30;;;;;;5032507;28;20466;-68
2023/05/30 12:24:22;;;;;;;3.10;2.70;;;26.30;93.50;;;;;;5037170;28;20468;-67
2023/05/30 12:26:49;;;;;;;2.70;2.50;;;26.30;92.70;;;;;;5026749;28;20469;-68
2023/05/30 12:29:17;;;;;;;2.93;2.60;;;26.30;93.20;;;;;;5027645;28;20473;-68
2023/05/30 12:31:44;;;;;;;3.00;2.70;;;26.10;93.10;;;;;;5027838;28;20464;-68
2023/05/30 12:34:12;;;;;;;3.30;3.00;;;26.20;91.90;;;;;;5042931;28;20545;-68
2023/05/30 12:36:39;;;;;;;3.27;2.67;;;26.20;93.80;;;;;;5047963;28;20469;-68
2023/05/30 12:39:07;;;;;;;4.03;2.73;;;26.20;92.10;;;;;;5048637;28;20463;-68
2023/05/30 12:41:36;;;;;;;3.37;2.83;;;26.20;91.30;;;;;;5047787;28;20500;-66
2023/05/30 12:44:03;;;;;;;3.33;2.97;;;26.30;92.10;;;;;;5048642;28;21010;-68
2023/05/30 12:46:33;;;;;;;3.50;2.30;;;26.40;91.70;;;;;;5047695;28;20470;-67
2023/05/30 12:49:00;;;;;;;2.90;2.60;;;26.40;91.40;;;;;;5048018;28;20489;-68
2023/05/30 12:51:27;;;;;;;3.23;2.70;;;26.40;90.80;;;;;;5048334;28;20478;-68
2023/05/30 12:53:54;;;;;;;4.10;2.77;;;26.50;92.00;;;;;;5048085;28;20466;-67